Terminal Aerodrome Forecast
Issued by NWS

Home | Current Version | Previous Version | Graphics & Text | Print | Product List | Glossary On
Versions: 1 2 3 4 5 6 7 8 9 10 11 12 13 14 15 16 17 18 19 20
000
FTUS43 KICT 242322
TAFHUT
TAF
KHUT 242322Z 2500/2524 16022G30KT P6SM SCT040
     FM250100 20014G20KT P6SM VCTS BKN040CB OVC130
     FM250600 29010KT P6SM SCT080 BKN250
     FM252100 03009KT P6SM SCT040 BKN100=

USA.gov is the U.S. government's official web portal to all federal, state and local government web resources and services.